Lochgilphead, United Kingdom
Current Conditions -  °F | °C
As of 1:50 AM on Monday 26 Jan 2015 (Local Time) from EGPI Reporting Station
Few Clouds Few Clouds  
Wind Chill: 34°   Ceiling: Unl
Heat Index: 43°   Visibility: 6mi
Dew Point: 39°   Wind: 22mph
Humidity: 87%   Direction: 290°WNW
Pressure: 30.03"   Gusts: NA
Location:  56.04°N, 5.43°W
Report Text: EGPI 260150Z AUTO 29019KT 9999 FEW039/// 06/04 Q1017
Loading
Personal Weather Stations






























Interactive Weather Map New forecast layout! Learn more

10-Day Weather Forecast

Advertisements
Track Severe Weather on mobile